sensor_id;sensor_type;location;lat;lon;timestamp;temperature;humidity
52675;DHT22;38569;52.722;6.440;2022-11-20T00:01:40;-4.00;99.90
52675;DHT22;38569;52.722;6.440;2022-11-20T00:04:06;-4.00;99.90
52675;DHT22;38569;52.722;6.440;2022-11-20T00:06:31;-3.80;99.90
52675;DHT22;38569;52.722;6.440;2022-11-20T00:08:57;-3.70;99.90
52675;DHT22;38569;52.722;6.440;2022-11-20T00:11:24;-3.60;99.90
52675;DHT22;38569;52.722;6.440;2022-11-20T00:13:51;-3.50;99.90
52675;DHT22;38569;52.722;6.440;2022-11-20T00:16:18;-3.40;99.90
52675;DHT22;38569;52.722;6.440;2022-11-20T00:18:44;-3.50;99.90
52675;DHT22;38569;52.722;6.440;2022-11-20T00:21:11;-3.50;99.90
52675;DHT22;38569;52.722;6.440;2022-11-20T00:23:37;-3.40;99.90
52675;DHT22;38569;52.722;6.440;2022-11-20T00:26:07;-3.40;99.90
52675;DHT22;38569;52.722;6.440;2022-11-20T00:28:33;-3.50;99.90
52675;DHT22;38569;52.722;6.440;2022-11-20T00:31:09;-3.70;99.90
52675;DHT22;38569;52.722;6.440;2022-11-20T00:33:34;-3.80;99.90
52675;DHT22;38569;52.722;6.440;2022-11-20T00:36:01;-3.90;99.90
52675;DHT22;38569;52.722;6.440;2022-11-20T00:38:26;-3.90;99.90
52675;DHT22;38569;52.722;6.440;2022-11-20T00:40:59;-3.90;99.90
52675;DHT22;38569;52.722;6.440;2022-11-20T00:43:25;-4.00;99.90
52675;DHT22;38569;52.722;6.440;2022-11-20T00:45:51;-4.10;99.90
52675;DHT22;38569;52.722;6.440;2022-11-20T00:48:20;-4.00;99.90
52675;DHT22;38569;52.722;6.440;2022-11-20T00:50:46;-4.00;99.90
52675;DHT22;38569;52.722;6.440;2022-11-20T00:53:12;-3.90;99.90
52675;DHT22;38569;52.722;6.440;2022-11-20T00:55:37;-3.70;99.90
52675;DHT22;38569;52.722;6.440;2022-11-20T00:58:03;-3.70;99.90
52675;DHT22;38569;52.722;6.440;2022-11-20T01:00:28;-3.70;99.90
52675;DHT22;38569;52.722;6.440;2022-11-20T01:02:55;-3.60;99.90
52675;DHT22;38569;52.722;6.440;2022-11-20T01:05:20;-3.60;99.90
52675;DHT22;38569;52.722;6.440;2022-11-20T01:07:46;-3.50;99.90
52675;DHT22;38569;52.722;6.440;2022-11-20T01:10:11;-3.60;99.90
52675;DHT22;38569;52.722;6.440;2022-11-20T01:12:37;-3.70;99.90
52675;DHT22;38569;52.722;6.440;2022-11-20T01:15:03;-3.60;99.90
52675;DHT22;38569;52.722;6.440;2022-11-20T01:17:28;-3.60;99.90
52675;DHT22;38569;52.722;6.440;2022-11-20T01:19:54;-3.40;99.90
52675;DHT22;38569;52.722;6.440;2022-11-20T01:22:19;-3.20;99.90
52675;DHT22;38569;52.722;6.440;2022-11-20T01:24:45;-3.10;99.90
52675;DHT22;38569;52.722;6.440;2022-11-20T01:27:10;-3.10;99.90
52675;DHT22;38569;52.722;6.440;2022-11-20T01:29:36;-3.20;99.90
52675;DHT22;38569;52.722;6.440;2022-11-20T01:32:01;-3.10;99.90
52675;DHT22;38569;52.722;6.440;2022-11-20T01:34:27;-3.00;99.90
52675;DHT22;38569;52.722;6.440;2022-11-20T01:36:53;-2.90;99.90
52675;DHT22;38569;52.722;6.440;2022-11-20T01:39:19;-2.90;99.90
52675;DHT22;38569;52.722;6.440;2022-11-20T01:41:46;-2.90;99.90
52675;DHT22;38569;52.722;6.440;2022-11-20T01:44:50;-3.00;99.90
52675;DHT22;38569;52.722;6.440;2022-11-20T01:47:35;-3.00;99.90
52675;DHT22;38569;52.722;6.440;2022-11-20T01:50:04;-2.80;99.90
52675;DHT22;38569;52.722;6.440;2022-11-20T01:52:34;-2.90;99.90
52675;DHT22;38569;52.722;6.440;2022-11-20T01:55:06;-2.90;99.90
52675;DHT22;38569;52.722;6.440;2022-11-20T01:57:33;-3.00;99.90
52675;DHT22;38569;52.722;6.440;2022-11-20T02:00:07;-3.10;99.90
52675;DHT22;38569;52.722;6.440;2022-11-20T02:02:34;-3.10;99.90
52675;DHT22;38569;52.722;6.440;2022-11-20T02:05:00;-3.10;99.90
52675;DHT22;38569;52.722;6.440;2022-11-20T02:07:28;-3.00;99.90
52675;DHT22;38569;52.722;6.440;2022-11-20T02:09:53;-3.10;99.90
52675;DHT22;38569;52.722;6.440;2022-11-20T02:12:19;-3.10;99.90
52675;DHT22;38569;52.722;6.440;2022-11-20T02:15:04;-3.00;99.90
52675;DHT22;38569;52.722;6.440;2022-11-20T02:17:29;-2.90;99.90
52675;DHT22;38569;52.722;6.440;2022-11-20T02:19:55;-2.90;99.90
52675;DHT22;38569;52.722;6.440;2022-11-20T02:22:23;-2.90;99.90
52675;DHT22;38569;52.722;6.440;2022-11-20T02:24:49;-2.90;99.90
52675;DHT22;38569;52.722;6.440;2022-11-20T02:27:15;-2.90;99.90
52675;DHT22;38569;52.722;6.440;2022-11-20T02:32:17;-3.00;99.90
52675;DHT22;38569;52.722;6.440;2022-11-20T02:34:43;-3.00;99.90
52675;DHT22;38569;52.722;6.440;2022-11-20T02:37:08;-3.00;99.90
52675;DHT22;38569;52.722;6.440;2022-11-20T02:39:34;-3.00;99.90
52675;DHT22;38569;52.722;6.440;2022-11-20T02:42:00;-2.90;99.90
52675;DHT22;38569;52.722;6.440;2022-11-20T02:44:26;-2.90;99.90
52675;DHT22;38569;52.722;6.440;2022-11-20T02:46:51;-2.80;99.90
52675;DHT22;38569;52.722;6.440;2022-11-20T02:49:17;-2.70;99.90
52675;DHT22;38569;52.722;6.440;2022-11-20T02:51:42;-2.40;99.90
52675;DHT22;38569;52.722;6.440;2022-11-20T02:54:08;-2.30;99.90
52675;DHT22;38569;52.722;6.440;2022-11-20T02:56:33;-2.20;99.90
52675;DHT22;38569;52.722;6.440;2022-11-20T02:58:59;-2.30;99.90
52675;DHT22;38569;52.722;6.440;2022-11-20T03:01:25;-2.40;99.90
52675;DHT22;38569;52.722;6.440;2022-11-20T03:03:50;-2.30;99.90
52675;DHT22;38569;52.722;6.440;2022-11-20T03:06:17;-2.20;99.90
52675;DHT22;38569;52.722;6.440;2022-11-20T03:08:43;-2.10;99.90
52675;DHT22;38569;52.722;6.440;2022-11-20T03:11:09;-2.20;99.90
52675;DHT22;38569;52.722;6.440;2022-11-20T03:13:35;-2.30;99.90
52675;DHT22;38569;52.722;6.440;2022-11-20T03:16:05;-2.10;99.90
52675;DHT22;38569;52.722;6.440;2022-11-20T03:18:30;-2.00;99.90
52675;DHT22;38569;52.722;6.440;2022-11-20T03:20:59;-2.00;99.90
52675;DHT22;38569;52.722;6.440;2022-11-20T03:23:25;-2.00;99.90
52675;DHT22;38569;52.722;6.440;2022-11-20T03:25:50;-1.80;99.90
52675;DHT22;38569;52.722;6.440;2022-11-20T03:28:16;-1.80;99.90
52675;DHT22;38569;52.722;6.440;2022-11-20T03:30:41;-1.90;99.90
52675;DHT22;38569;52.722;6.440;2022-11-20T03:33:07;-1.90;99.90
52675;DHT22;38569;52.722;6.440;2022-11-20T03:35:32;-1.80;99.90
52675;DHT22;38569;52.722;6.440;2022-11-20T03:37:58;-1.80;99.90
52675;DHT22;38569;52.722;6.440;2022-11-20T03:40:24;-1.70;99.90
52675;DHT22;38569;52.722;6.440;2022-11-20T03:42:49;-1.60;99.90
52675;DHT22;38569;52.722;6.440;2022-11-20T03:45:16;-1.50;99.90
52675;DHT22;38569;52.722;6.440;2022-11-20T03:47:41;-1.60;99.90
52675;DHT22;38569;52.722;6.440;2022-11-20T03:50:08;-1.70;99.90
52675;DHT22;38569;52.722;6.440;2022-11-20T03:52:33;-1.80;99.90
52675;DHT22;38569;52.722;6.440;2022-11-20T03:54:59;-1.80;99.90
52675;DHT22;38569;52.722;6.440;2022-11-20T03:57:24;-1.90;99.90
52675;DHT22;38569;52.722;6.440;2022-11-20T03:59:50;-1.90;99.90
52675;DHT22;38569;52.722;6.440;2022-11-20T04:02:16;-1.70;99.90
52675;DHT22;38569;52.722;6.440;2022-11-20T04:04:41;-1.60;99.90
52675;DHT22;38569;52.722;6.440;2022-11-20T04:07:07;-1.70;99.90
52675;DHT22;38569;52.722;6.440;2022-11-20T04:09:32;-1.80;99.90
52675;DHT22;38569;52.722;6.440;2022-11-20T04:11:58;-1.80;99.90
52675;DHT22;38569;52.722;6.440;2022-11-20T04:14:23;-1.60;99.90
52675;DHT22;38569;52.722;6.440;2022-11-20T04:16:49;-1.60;99.90
52675;DHT22;38569;52.722;6.440;2022-11-20T04:19:15;-1.60;99.90
52675;DHT22;38569;52.722;6.440;2022-11-20T04:21:41;-1.70;99.90
52675;DHT22;38569;52.722;6.440;2022-11-20T04:24:07;-1.70;99.90
52675;DHT22;38569;52.722;6.440;2022-11-20T04:26:33;-1.70;99.90
52675;DHT22;38569;52.722;6.440;2022-11-20T04:28:58;-1.80;99.90
52675;DHT22;38569;52.722;6.440;2022-11-20T04:31:26;-1.70;99.90
52675;DHT22;38569;52.722;6.440;2022-11-20T04:33:52;-1.50;99.90
52675;DHT22;38569;52.722;6.440;2022-11-20T04:36:19;-1.40;99.90
52675;DHT22;38569;52.722;6.440;2022-11-20T04:38:46;-1.30;99.90
52675;DHT22;38569;52.722;6.440;2022-11-20T04:41:15;-1.30;99.90
52675;DHT22;38569;52.722;6.440;2022-11-20T04:43:41;-1.40;99.90
52675;DHT22;38569;52.722;6.440;2022-11-20T04:46:07;-1.40;99.90
52675;DHT22;38569;52.722;6.440;2022-11-20T04:48:32;-1.50;99.90
52675;DHT22;38569;52.722;6.440;2022-11-20T04:51:02;-1.40;99.90
52675;DHT22;38569;52.722;6.440;2022-11-20T04:53:28;-1.30;99.90
52675;DHT22;38569;52.722;6.440;2022-11-20T04:55:58;-1.20;99.90
52675;DHT22;38569;52.722;6.440;2022-11-20T04:58:24;-1.10;99.90
52675;DHT22;38569;52.722;6.440;2022-11-20T05:00:49;-1.20;99.90
52675;DHT22;38569;52.722;6.440;2022-11-20T05:03:17;-1.40;99.90
52675;DHT22;38569;52.722;6.440;2022-11-20T05:05:42;-1.60;99.90
52675;DHT22;38569;52.722;6.440;2022-11-20T05:08:08;-1.60;99.90
52675;DHT22;38569;52.722;6.440;2022-11-20T05:10:33;-1.60;99.90
52675;DHT22;38569;52.722;6.440;2022-11-20T05:12:59;-1.40;99.90
52675;DHT22;38569;52.722;6.440;2022-11-20T05:15:24;-1.40;99.90
52675;DHT22;38569;52.722;6.440;2022-11-20T05:17:51;-1.30;99.90
52675;DHT22;38569;52.722;6.440;2022-11-20T05:20:17;-1.30;99.90
52675;DHT22;38569;52.722;6.440;2022-11-20T05:22:43;-1.20;99.90
52675;DHT22;38569;52.722;6.440;2022-11-20T05:25:08;-1.10;99.90
52675;DHT22;38569;52.722;6.440;2022-11-20T05:27:34;-1.00;99.90
52675;DHT22;38569;52.722;6.440;2022-11-20T05:30:00;-0.90;99.90
52675;DHT22;38569;52.722;6.440;2022-11-20T05:32:25;-1.10;99.90
52675;DHT22;38569;52.722;6.440;2022-11-20T05:34:51;-1.20;99.90
52675;DHT22;38569;52.722;6.440;2022-11-20T05:37:17;-1.20;99.90
52675;DHT22;38569;52.722;6.440;2022-11-20T05:39:42;-1.20;99.90
52675;DHT22;38569;52.722;6.440;2022-11-20T05:42:08;-1.10;99.90
52675;DHT22;38569;52.722;6.440;2022-11-20T05:44:52;-1.20;99.90
52675;DHT22;38569;52.722;6.440;2022-11-20T05:47:18;-1.30;99.90
52675;DHT22;38569;52.722;6.440;2022-11-20T05:49:43;-1.20;99.90
52675;DHT22;38569;52.722;6.440;2022-11-20T05:52:09;-1.10;99.90
52675;DHT22;38569;52.722;6.440;2022-11-20T05:54:34;-1.10;99.90
52675;DHT22;38569;52.722;6.440;2022-11-20T05:57:00;-1.00;99.90
52675;DHT22;38569;52.722;6.440;2022-11-20T05:59:25;-0.90;99.90
52675;DHT22;38569;52.722;6.440;2022-11-20T06:01:51;-0.80;99.90
52675;DHT22;38569;52.722;6.440;2022-11-20T06:04:16;-0.70;99.90
52675;DHT22;38569;52.722;6.440;2022-11-20T06:06:42;-0.70;99.90
52675;DHT22;38569;52.722;6.440;2022-11-20T06:09:09;-0.60;99.90
52675;DHT22;38569;52.722;6.440;2022-11-20T06:11:34;-0.60;99.90
52675;DHT22;38569;52.722;6.440;2022-11-20T06:14:00;-0.60;99.90
52675;DHT22;38569;52.722;6.440;2022-11-20T06:16:25;-0.60;99.90
52675;DHT22;38569;52.722;6.440;2022-11-20T06:18:51;-0.50;99.90
52675;DHT22;38569;52.722;6.440;2022-11-20T06:21:18;-0.60;99.90
52675;DHT22;38569;52.722;6.440;2022-11-20T06:23:44;-0.50;99.90
52675;DHT22;38569;52.722;6.440;2022-11-20T06:26:10;-0.50;99.90
52675;DHT22;38569;52.722;6.440;2022-11-20T06:28:36;-0.50;99.90
52675;DHT22;38569;52.722;6.440;2022-11-20T06:31:02;-0.60;99.90
52675;DHT22;38569;52.722;6.440;2022-11-20T06:33:28;-0.60;99.90
52675;DHT22;38569;52.722;6.440;2022-11-20T06:35:56;-0.50;99.90
52675;DHT22;38569;52.722;6.440;2022-11-20T06:38:22;-0.50;99.90
52675;DHT22;38569;52.722;6.440;2022-11-20T06:40:47;-0.40;99.90
52675;DHT22;38569;52.722;6.440;2022-11-20T06:43:13;-0.40;99.90
52675;DHT22;38569;52.722;6.440;2022-11-20T06:45:38;-0.40;99.90
52675;DHT22;38569;52.722;6.440;2022-11-20T06:48:04;-0.50;99.90
52675;DHT22;38569;52.722;6.440;2022-11-20T06:50:29;-0.50;99.90
52675;DHT22;38569;52.722;6.440;2022-11-20T06:52:55;-0.50;99.90
52675;DHT22;38569;52.722;6.440;2022-11-20T06:55:20;-0.70;99.90
52675;DHT22;38569;52.722;6.440;2022-11-20T06:57:46;-0.90;99.90
52675;DHT22;38569;52.722;6.440;2022-11-20T07:00:12;-1.00;99.90
52675;DHT22;38569;52.722;6.440;2022-11-20T07:02:37;-0.90;99.90
52675;DHT22;38569;52.722;6.440;2022-11-20T07:05:03;-0.90;99.90
52675;DHT22;38569;52.722;6.440;2022-11-20T07:07:29;-0.90;99.90
52675;DHT22;38569;52.722;6.440;2022-11-20T07:09:55;-1.00;99.90
52675;DHT22;38569;52.722;6.440;2022-11-20T07:12:20;-1.00;99.90
52675;DHT22;38569;52.722;6.440;2022-11-20T07:14:46;-0.80;99.90
52675;DHT22;38569;52.722;6.440;2022-11-20T07:17:12;-0.80;99.90
52675;DHT22;38569;52.722;6.440;2022-11-20T07:19:38;-0.80;99.90
52675;DHT22;38569;52.722;6.440;2022-11-20T07:22:03;-0.80;99.90
52675;DHT22;38569;52.722;6.440;2022-11-20T07:24:29;-0.90;99.90
52675;DHT22;38569;52.722;6.440;2022-11-20T07:26:54;-0.90;99.90
52675;DHT22;38569;52.722;6.440;2022-11-20T07:29:20;-0.90;99.90
52675;DHT22;38569;52.722;6.440;2022-11-20T07:31:45;-0.90;99.90
52675;DHT22;38569;52.722;6.440;2022-11-20T07:34:11;-0.90;99.90
52675;DHT22;38569;52.722;6.440;2022-11-20T07:36:37;-0.90;99.90
52675;DHT22;38569;52.722;6.440;2022-11-20T07:39:02;-0.90;99.90
52675;DHT22;38569;52.722;6.440;2022-11-20T07:41:28;-0.80;99.90
52675;DHT22;38569;52.722;6.440;2022-11-20T07:43:54;-0.80;99.90
52675;DHT22;38569;52.722;6.440;2022-11-20T07:46:19;-0.60;99.90
52675;DHT22;38569;52.722;6.440;2022-11-20T07:48:45;-0.40;99.90
52675;DHT22;38569;52.722;6.440;2022-11-20T07:51:11;-0.30;99.90
52675;DHT22;38569;52.722;6.440;2022-11-20T07:53:36;-0.20;99.90
52675;DHT22;38569;52.722;6.440;2022-11-20T07:56:02;-0.10;99.90
52675;DHT22;38569;52.722;6.440;2022-11-20T07:58:28;0.00;99.90
52675;DHT22;38569;52.722;6.440;2022-11-20T08:00:54;0.10;99.90
52675;DHT22;38569;52.722;6.440;2022-11-20T08:03:19;0.10;99.90
52675;DHT22;38569;52.722;6.440;2022-11-20T08:05:45;0.20;99.90
52675;DHT22;38569;52.722;6.440;2022-11-20T08:08:11;0.30;99.90
52675;DHT22;38569;52.722;6.440;2022-11-20T08:10:37;0.40;99.90
52675;DHT22;38569;52.722;6.440;2022-11-20T08:13:03;0.40;99.90
52675;DHT22;38569;52.722;6.440;2022-11-20T08:15:48;0.40;99.90
52675;DHT22;38569;52.722;6.440;2022-11-20T08:18:15;0.40;99.90
52675;DHT22;38569;52.722;6.440;2022-11-20T08:20:41;0.40;99.90
52675;DHT22;38569;52.722;6.440;2022-11-20T08:23:07;0.40;99.90
52675;DHT22;38569;52.722;6.440;2022-11-20T08:25:33;0.40;99.90
52675;DHT22;38569;52.722;6.440;2022-11-20T08:28:00;0.60;99.90
52675;DHT22;38569;52.722;6.440;2022-11-20T08:30:26;0.60;99.90
52675;DHT22;38569;52.722;6.440;2022-11-20T08:32:52;0.70;99.90
52675;DHT22;38569;52.722;6.440;2022-11-20T08:35:18;0.80;99.90
52675;DHT22;38569;52.722;6.440;2022-11-20T08:37:47;1.00;99.90
52675;DHT22;38569;52.722;6.440;2022-11-20T08:40:13;1.00;99.90
52675;DHT22;38569;52.722;6.440;2022-11-20T08:42:48;1.10;99.90
52675;DHT22;38569;52.722;6.440;2022-11-20T08:45:14;1.10;99.90
52675;DHT22;38569;52.722;6.440;2022-11-20T08:47:39;1.10;99.90
52675;DHT22;38569;52.722;6.440;2022-11-20T08:50:05;1.10;99.90
52675;DHT22;38569;52.722;6.440;2022-11-20T08:52:31;1.20;99.90
52675;DHT22;38569;52.722;6.440;2022-11-20T08:54:56;1.30;99.90
52675;DHT22;38569;52.722;6.440;2022-11-20T08:57:22;1.40;99.90
52675;DHT22;38569;52.722;6.440;2022-11-20T08:59:47;1.40;99.90
52675;DHT22;38569;52.722;6.440;2022-11-20T09:02:13;1.30;99.90
52675;DHT22;38569;52.722;6.440;2022-11-20T09:04:38;1.30;99.90
52675;DHT22;38569;52.722;6.440;2022-11-20T09:07:04;1.20;99.90
52675;DHT22;38569;52.722;6.440;2022-11-20T09:09:29;1.20;99.90
52675;DHT22;38569;52.722;6.440;2022-11-20T09:11:55;1.10;99.90
52675;DHT22;38569;52.722;6.440;2022-11-20T09:14:21;1.00;99.90
52675;DHT22;38569;52.722;6.440;2022-11-20T09:16:46;1.50;99.90
52675;DHT22;38569;52.722;6.440;2022-11-20T09:19:12;2.70;99.90
52675;DHT22;38569;52.722;6.440;2022-11-20T09:21:37;3.60;99.90
52675;DHT22;38569;52.722;6.440;2022-11-20T09:24:04;3.70;99.90
52675;DHT22;38569;52.722;6.440;2022-11-20T09:26:30;3.70;99.90
52675;DHT22;38569;52.722;6.440;2022-11-20T09:28:55;4.60;99.90
52675;DHT22;38569;52.722;6.440;2022-11-20T09:31:22;5.60;99.90
52675;DHT22;38569;52.722;6.440;2022-11-20T09:33:48;6.50;99.90
52675;DHT22;38569;52.722;6.440;2022-11-20T09:36:14;7.30;99.90
52675;DHT22;38569;52.722;6.440;2022-11-20T09:38:39;7.50;99.90
52675;DHT22;38569;52.722;6.440;2022-11-20T09:41:05;8.10;99.90
52675;DHT22;38569;52.722;6.440;2022-11-20T09:43:50;9.10;98.10
52675;DHT22;38569;52.722;6.440;2022-11-20T09:46:38;9.80;96.40
52675;DHT22;38569;52.722;6.440;2022-11-20T09:54:20;10.20;83.30
52675;DHT22;38569;52.722;6.440;2022-11-20T09:59:41;9.90;81.80
52675;DHT22;38569;52.722;6.440;2022-11-20T10:04:51;9.60;87.80
52675;DHT22;38569;52.722;6.440;2022-11-20T10:07:23;9.40;82.20
52675;DHT22;38569;52.722;6.440;2022-11-20T10:09:51;9.40;80.40
52675;DHT22;38569;52.722;6.440;2022-11-20T10:17:40;9.60;81.00
52675;DHT22;38569;52.722;6.440;2022-11-20T10:25:30;10.60;75.60
52675;DHT22;38569;52.722;6.440;2022-11-20T10:30:44;11.10;77.90
52675;DHT22;38569;52.722;6.440;2022-11-20T10:33:17;11.50;76.70
52675;DHT22;38569;52.722;6.440;2022-11-20T10:35:47;11.70;74.70
52675;DHT22;38569;52.722;6.440;2022-11-20T10:38:21;11.70;74.40
52675;DHT22;38569;52.722;6.440;2022-11-20T10:40:50;11.50;75.40
52675;DHT22;38569;52.722;6.440;2022-11-20T10:43:18;11.50;70.90
52675;DHT22;38569;52.722;6.440;2022-11-20T10:48:12;11.90;71.60
52675;DHT22;38569;52.722;6.440;2022-11-20T10:50:40;11.30;72.00
52675;DHT22;38569;52.722;6.440;2022-11-20T10:53:17;11.20;71.00
52675;DHT22;38569;52.722;6.440;2022-11-20T10:55:46;11.50;68.90
52675;DHT22;38569;52.722;6.440;2022-11-20T10:58:14;11.70;64.20
52675;DHT22;38569;52.722;6.440;2022-11-20T11:00:41;11.50;66.00
52675;DHT22;38569;52.722;6.440;2022-11-20T11:03:27;11.70;66.50
52675;DHT22;38569;52.722;6.440;2022-11-20T11:08:39;12.80;71.00
52675;DHT22;38569;52.722;6.440;2022-11-20T11:11:20;12.10;64.20
52675;DHT22;38569;52.722;6.440;2022-11-20T11:13:46;11.20;63.90
52675;DHT22;38569;52.722;6.440;2022-11-20T11:19:11;9.20;66.50
52675;DHT22;38569;52.722;6.440;2022-11-20T11:21:37;8.50;68.20
52675;DHT22;38569;52.722;6.440;2022-11-20T11:24:14;7.80;68.90
52675;DHT22;38569;52.722;6.440;2022-11-20T11:26:41;7.70;71.60
52675;DHT22;38569;52.722;6.440;2022-11-20T11:29:17;7.50;73.20
52675;DHT22;38569;52.722;6.440;2022-11-20T11:31:43;7.50;71.10
52675;DHT22;38569;52.722;6.440;2022-11-20T11:34:15;7.10;71.90
52675;DHT22;38569;52.722;6.440;2022-11-20T11:36:41;6.80;74.00
52675;DHT22;38569;52.722;6.440;2022-11-20T11:39:17;6.80;75.90
52675;DHT22;38569;52.722;6.440;2022-11-20T11:41:44;6.80;75.00
52675;DHT22;38569;52.722;6.440;2022-11-20T11:44:15;6.70;78.60
52675;DHT22;38569;52.722;6.440;2022-11-20T11:46:59;6.80;80.20
52675;DHT22;38569;52.722;6.440;2022-11-20T11:49:25;6.70;80.00
52675;DHT22;38569;52.722;6.440;2022-11-20T11:54:22;6.30;80.90
52675;DHT22;38569;52.722;6.440;2022-11-20T11:56:49;6.30;82.30
52675;DHT22;38569;52.722;6.440;2022-11-20T11:59:17;6.00;82.00
52675;DHT22;38569;52.722;6.440;2022-11-20T12:01:50;6.40;84.50
52675;DHT22;38569;52.722;6.440;2022-11-20T12:06:44;7.80;81.70
52675;DHT22;38569;52.722;6.440;2022-11-20T12:09:11;8.00;78.90
52675;DHT22;38569;52.722;6.440;2022-11-20T12:14:14;8.50;81.10
52675;DHT22;38569;52.722;6.440;2022-11-20T12:16:41;8.10;78.50
52675;DHT22;38569;52.722;6.440;2022-11-20T12:19:11;7.40;78.00
52675;DHT22;38569;52.722;6.440;2022-11-20T12:24:06;6.60;81.50
52675;DHT22;38569;52.722;6.440;2022-11-20T12:32:06;5.60;83.90
52675;DHT22;38569;52.722;6.440;2022-11-20T12:39:41;5.30;89.10
52675;DHT22;38569;52.722;6.440;2022-11-20T12:58:39;4.70;92.10
52675;DHT22;38569;52.722;6.440;2022-11-20T13:00:41;4.60;93.40
52675;DHT22;38569;52.722;6.440;2022-11-20T13:08:00;4.50;95.90
52675;DHT22;38569;52.722;6.440;2022-11-20T13:10:29;4.50;96.60
52675;DHT22;38569;52.722;6.440;2022-11-20T13:12:58;4.40;97.20
52675;DHT22;38569;52.722;6.440;2022-11-20T13:17:58;4.50;98.30
52675;DHT22;38569;52.722;6.440;2022-11-20T13:20:24;4.50;98.30
52675;DHT22;38569;52.722;6.440;2022-11-20T13:22:54;4.50;98.40
52675;DHT22;38569;52.722;6.440;2022-11-20T13:27:49;4.50;99.10
52675;DHT22;38569;52.722;6.440;2022-11-20T13:30:19;4.40;99.30
52675;DHT22;38569;52.722;6.440;2022-11-20T13:32:48;4.30;99.60
52675;DHT22;38569;52.722;6.440;2022-11-20T13:35:23;4.40;99.90
52675;DHT22;38569;52.722;6.440;2022-11-20T13:37:58;4.40;99.90
52675;DHT22;38569;52.722;6.440;2022-11-20T13:40:24;4.30;99.90
52675;DHT22;38569;52.722;6.440;2022-11-20T13:43:01;4.40;99.90
52675;DHT22;38569;52.722;6.440;2022-11-20T13:45:28;4.30;99.90
52675;DHT22;38569;52.722;6.440;2022-11-20T13:47:54;4.20;99.90
52675;DHT22;38569;52.722;6.440;2022-11-20T13:55:37;4.10;99.90
52675;DHT22;38569;52.722;6.440;2022-11-20T14:00:50;4.10;99.90
52675;DHT22;38569;52.722;6.440;2022-11-20T14:03:23;4.10;99.90
52675;DHT22;38569;52.722;6.440;2022-11-20T14:05:57;4.00;99.90
52675;DHT22;38569;52.722;6.440;2022-11-20T14:08:39;3.90;99.90
52675;DHT22;38569;52.722;6.440;2022-11-20T14:13:50;3.90;99.90
52675;DHT22;38569;52.722;6.440;2022-11-20T14:16:19;3.90;99.90
52675;DHT22;38569;52.722;6.440;2022-11-20T14:18:44;3.90;99.90
52675;DHT22;38569;52.722;6.440;2022-11-20T14:21:10;3.90;99.90
52675;DHT22;38569;52.722;6.440;2022-11-20T14:23:35;3.90;99.90
52675;DHT22;38569;52.722;6.440;2022-11-20T14:26:01;3.80;99.90
52675;DHT22;38569;52.722;6.440;2022-11-20T14:28:27;3.80;99.90
52675;DHT22;38569;52.722;6.440;2022-11-20T14:30:53;3.80;99.90
52675;DHT22;38569;52.722;6.440;2022-11-20T14:33:19;3.70;99.90
52675;DHT22;38569;52.722;6.440;2022-11-20T14:35:46;3.70;99.90
52675;DHT22;38569;52.722;6.440;2022-11-20T14:38:13;3.70;99.90
52675;DHT22;38569;52.722;6.440;2022-11-20T14:40:39;3.70;99.90
52675;DHT22;38569;52.722;6.440;2022-11-20T14:43:18;3.80;99.90
52675;DHT22;38569;52.722;6.440;2022-11-20T14:45:45;3.70;99.90
52675;DHT22;38569;52.722;6.440;2022-11-20T14:48:11;3.70;99.90
52675;DHT22;38569;52.722;6.440;2022-11-20T14:50:37;3.70;99.90
52675;DHT22;38569;52.722;6.440;2022-11-20T14:53:03;3.60;99.90
52675;DHT22;38569;52.722;6.440;2022-11-20T14:55:33;3.60;99.90
52675;DHT22;38569;52.722;6.440;2022-11-20T14:58:02;3.60;99.90
52675;DHT22;38569;52.722;6.440;2022-11-20T15:00:29;3.50;99.90
52675;DHT22;38569;52.722;6.440;2022-11-20T15:02:55;3.50;99.90
52675;DHT22;38569;52.722;6.440;2022-11-20T15:05:22;3.50;99.90
52675;DHT22;38569;52.722;6.440;2022-11-20T15:07:49;3.50;99.90
52675;DHT22;38569;52.722;6.440;2022-11-20T15:10:23;3.50;99.90
52675;DHT22;38569;52.722;6.440;2022-11-20T15:12:53;3.40;99.90
52675;DHT22;38569;52.722;6.440;2022-11-20T15:15:29;3.40;99.90
52675;DHT22;38569;52.722;6.440;2022-11-20T15:17:55;3.30;99.90
52675;DHT22;38569;52.722;6.440;2022-11-20T15:20:21;3.30;99.90
52675;DHT22;38569;52.722;6.440;2022-11-20T15:22:49;3.30;99.90
52675;DHT22;38569;52.722;6.440;2022-11-20T15:25:15;3.40;99.90
52675;DHT22;38569;52.722;6.440;2022-11-20T15:27:42;3.30;99.90
52675;DHT22;38569;52.722;6.440;2022-11-20T15:30:15;3.30;99.90
52675;DHT22;38569;52.722;6.440;2022-11-20T15:32:42;3.30;99.90
52675;DHT22;38569;52.722;6.440;2022-11-20T15:35:08;3.30;99.90
52675;DHT22;38569;52.722;6.440;2022-11-20T15:37:34;3.40;99.90
52675;DHT22;38569;52.722;6.440;2022-11-20T15:39:59;3.30;99.90
52675;DHT22;38569;52.722;6.440;2022-11-20T15:42:25;3.30;99.90
52675;DHT22;38569;52.722;6.440;2022-11-20T15:44:50;3.20;99.90
52675;DHT22;38569;52.722;6.440;2022-11-20T15:47:16;3.30;99.90
52675;DHT22;38569;52.722;6.440;2022-11-20T15:49:42;3.30;99.90
52675;DHT22;38569;52.722;6.440;2022-11-20T15:52:08;3.30;99.90
52675;DHT22;38569;52.722;6.440;2022-11-20T15:54:34;3.20;99.90
52675;DHT22;38569;52.722;6.440;2022-11-20T15:57:00;3.20;99.90
52675;DHT22;38569;52.722;6.440;2022-11-20T15:59:27;3.20;99.90
52675;DHT22;38569;52.722;6.440;2022-11-20T16:01:52;3.20;99.90
52675;DHT22;38569;52.722;6.440;2022-11-20T16:04:18;3.30;99.90
52675;DHT22;38569;52.722;6.440;2022-11-20T16:06:44;3.20;99.90
52675;DHT22;38569;52.722;6.440;2022-11-20T16:09:10;3.20;99.90
52675;DHT22;38569;52.722;6.440;2022-11-20T16:11:35;3.30;99.90
52675;DHT22;38569;52.722;6.440;2022-11-20T16:14:02;3.10;99.90
52675;DHT22;38569;52.722;6.440;2022-11-20T16:16:47;3.00;99.90
52675;DHT22;38569;52.722;6.440;2022-11-20T16:19:13;3.00;99.90
52675;DHT22;38569;52.722;6.440;2022-11-20T16:21:39;3.00;99.90
52675;DHT22;38569;52.722;6.440;2022-11-20T16:24:07;3.20;99.90
52675;DHT22;38569;52.722;6.440;2022-11-20T16:26:33;3.20;99.90
52675;DHT22;38569;52.722;6.440;2022-11-20T16:28:59;3.20;99.90
52675;DHT22;38569;52.722;6.440;2022-11-20T16:31:25;3.30;99.90
52675;DHT22;38569;52.722;6.440;2022-11-20T16:33:52;3.30;99.90
52675;DHT22;38569;52.722;6.440;2022-11-20T16:36:18;3.20;99.90
52675;DHT22;38569;52.722;6.440;2022-11-20T16:38:44;3.20;99.90
52675;DHT22;38569;52.722;6.440;2022-11-20T16:41:10;3.20;99.90
52675;DHT22;38569;52.722;6.440;2022-11-20T16:43:43;3.20;99.90
52675;DHT22;38569;52.722;6.440;2022-11-20T16:46:09;3.20;99.90
52675;DHT22;38569;52.722;6.440;2022-11-20T16:48:34;3.10;99.90
52675;DHT22;38569;52.722;6.440;2022-11-20T16:51:00;2.90;99.90
52675;DHT22;38569;52.722;6.440;2022-11-20T16:53:25;2.80;99.90
52675;DHT22;38569;52.722;6.440;2022-11-20T16:55:51;2.70;99.90
52675;DHT22;38569;52.722;6.440;2022-11-20T16:58:16;2.50;99.90
52675;DHT22;38569;52.722;6.440;2022-11-20T17:00:42;2.50;99.90
52675;DHT22;38569;52.722;6.440;2022-11-20T17:03:08;2.50;99.90
52675;DHT22;38569;52.722;6.440;2022-11-20T17:05:33;2.50;99.90
52675;DHT22;38569;52.722;6.440;2022-11-20T17:07:59;2.50;99.90
52675;DHT22;38569;52.722;6.440;2022-11-20T17:10:25;2.60;99.90